sensor_id;sensor_type;location;lat;lon;timestamp;pressure;altitude;pressure_sealevel;temperature;humidity
22688;BME280;11511;51.514;7.080;2023-07-31T01:03:56;100684.69;;;14.93;100.00
22688;BME280;11511;51.514;7.080;2023-07-31T12:08:47;100342.06;;;18.00;100.00
22688;BME280;11511;51.514;7.080;2023-07-31T12:11:17;100338.13;;;17.80;100.00
22688;BME280;11511;51.514;7.080;2023-07-31T12:13:48;100342.63;;;17.67;100.00
22688;BME280;11511;51.514;7.080;2023-07-31T12:16:16;100338.88;;;17.44;100.00
22688;BME280;11511;51.514;7.080;2023-07-31T12:18:44;100347.31;;;17.50;100.00
22688;BME280;11511;51.514;7.080;2023-07-31T12:21:17;100338.56;;;17.48;100.00
22688;BME280;11511;51.514;7.080;2023-07-31T12:23:44;100348.88;;;17.40;100.00
22688;BME280;11511;51.514;7.080;2023-07-31T12:26:19;100361.66;;;17.35;100.00
22688;BME280;11511;51.514;7.080;2023-07-31T12:28:54;100356.75;;;17.29;100.00
22688;BME280;11511;51.514;7.080;2023-07-31T12:31:28;100360.47;;;17.26;100.00
22688;BME280;11511;51.514;7.080;2023-07-31T12:33:57;100355.66;;;17.06;100.00
22688;BME280;11511;51.514;7.080;2023-07-31T12:36:25;100360.31;;;16.90;100.00
22688;BME280;11511;51.514;7.080;2023-07-31T12:38:55;100360.09;;;16.93;100.00
22688;BME280;11511;51.514;7.080;2023-07-31T12:41:33;100356.06;;;17.00;100.00
22688;BME280;11511;51.514;7.080;2023-07-31T12:44:33;100352.28;;;17.17;100.00
22688;BME280;11511;51.514;7.080;2023-07-31T12:47:25;100355.59;;;17.33;100.00
22688;BME280;11511;51.514;7.080;2023-07-31T12:49:57;100346.22;;;17.53;100.00
22688;BME280;11511;51.514;7.080;2023-07-31T12:52:29;100348.59;;;17.70;100.00
22688;BME280;11511;51.514;7.080;2023-07-31T12:57:59;100324.59;;;17.83;100.00
22688;BME280;11511;51.514;7.080;2023-07-31T13:00:29;100326.63;;;17.79;100.00
22688;BME280;11511;51.514;7.080;2023-07-31T13:02:57;100318.34;;;17.71;100.00
22688;BME280;11511;51.514;7.080;2023-07-31T13:05:30;100312.91;;;17.73;100.00
22688;BME280;11511;51.514;7.080;2023-07-31T13:08:24;100316.41;;;17.73;100.00
22688;BME280;11511;51.514;7.080;2023-07-31T13:10:53;100302.00;;;17.63;100.00
22688;BME280;11511;51.514;7.080;2023-07-31T13:13:32;100294.38;;;17.71;100.00
22688;BME280;11511;51.514;7.080;2023-07-31T13:16:19;100296.47;;;17.79;100.00
22688;BME280;11511;51.514;7.080;2023-07-31T13:18:59;100294.63;;;17.92;100.00
22688;BME280;11511;51.514;7.080;2023-07-31T13:21:29;100282.66;;;17.74;100.00
22688;BME280;11511;51.514;7.080;2023-07-31T13:24:03;100281.13;;;18.19;100.00
22688;BME280;11511;51.514;7.080;2023-07-31T13:26:37;100271.00;;;18.11;100.00
22688;BME280;11511;51.514;7.080;2023-07-31T13:29:03;100271.97;;;18.10;100.00
22688;BME280;11511;51.514;7.080;2023-07-31T13:31:34;100267.81;;;18.06;100.00
22688;BME280;11511;51.514;7.080;2023-07-31T13:34:26;100256.81;;;18.11;100.00
22688;BME280;11511;51.514;7.080;2023-07-31T13:36:55;100252.41;;;18.22;100.00
22688;BME280;11511;51.514;7.080;2023-07-31T13:39:26;100252.94;;;18.04;100.00
22688;BME280;11511;51.514;7.080;2023-07-31T13:41:57;100244.94;;;18.04;100.00
22688;BME280;11511;51.514;7.080;2023-07-31T13:44:44;100244.84;;;17.92;100.00
22688;BME280;11511;51.514;7.080;2023-07-31T13:47:16;100244.94;;;18.04;100.00
22688;BME280;11511;51.514;7.080;2023-07-31T13:49:50;100246.28;;;18.09;100.00
22688;BME280;11511;51.514;7.080;2023-07-31T13:52:19;100245.84;;;18.15;100.00
22688;BME280;11511;51.514;7.080;2023-07-31T13:54:45;100233.81;;;18.10;100.00
22688;BME280;11511;51.514;7.080;2023-07-31T13:57:13;100239.09;;;18.22;100.00
22688;BME280;11511;51.514;7.080;2023-07-31T13:59:46;100235.47;;;18.23;100.00
22688;BME280;11511;51.514;7.080;2023-07-31T14:02:17;100243.25;;;18.26;100.00
22688;BME280;11511;51.514;7.080;2023-07-31T14:04:48;100238.66;;;18.29;100.00
22688;BME280;11511;51.514;7.080;2023-07-31T14:07:16;100236.53;;;18.21;100.00
22688;BME280;11511;51.514;7.080;2023-07-31T14:09:48;100228.09;;;18.27;100.00
22688;BME280;11511;51.514;7.080;2023-07-31T14:12:19;100217.56;;;18.60;100.00
22688;BME280;11511;51.514;7.080;2023-07-31T14:14:57;100217.44;;;19.08;100.00
22688;BME280;11511;51.514;7.080;2023-07-31T14:17:25;100191.22;;;19.47;100.00
22688;BME280;11511;51.514;7.080;2023-07-31T14:19:53;100185.53;;;19.63;100.00
22688;BME280;11511;51.514;7.080;2023-07-31T14:22:30;100166.34;;;20.01;100.00
22688;BME280;11511;51.514;7.080;2023-07-31T14:25:02;100172.72;;;19.88;100.00
22688;BME280;11511;51.514;7.080;2023-07-31T14:27:37;100176.06;;;20.02;100.00
22688;BME280;11511;51.514;7.080;2023-07-31T14:30:12;100162.09;;;19.98;100.00
22688;BME280;11511;51.514;7.080;2023-07-31T14:32:43;100161.56;;;19.83;100.00
22688;BME280;11511;51.514;7.080;2023-07-31T14:35:23;100172.06;;;19.53;100.00
22688;BME280;11511;51.514;7.080;2023-07-31T14:37:50;100161.84;;;19.24;100.00
22688;BME280;11511;51.514;7.080;2023-07-31T14:40:22;100161.13;;;19.34;100.00
22688;BME280;11511;51.514;7.080;2023-07-31T14:42:57;100169.88;;;19.24;100.00
22688;BME280;11511;51.514;7.080;2023-07-31T14:45:38;100162.22;;;19.09;100.00
22688;BME280;11511;51.514;7.080;2023-07-31T14:48:09;100171.94;;;18.99;100.00
22688;BME280;11511;51.514;7.080;2023-07-31T14:50:40;100167.78;;;18.83;100.00
22688;BME280;11511;51.514;7.080;2023-07-31T14:53:08;100173.94;;;18.73;100.00
22688;BME280;11511;51.514;7.080;2023-07-31T14:55:38;100170.75;;;18.56;100.00
22688;BME280;11511;51.514;7.080;2023-07-31T14:58:09;100192.16;;;18.44;100.00
22688;BME280;11511;51.514;7.080;2023-07-31T15:00:48;100187.50;;;18.35;100.00
22688;BME280;11511;51.514;7.080;2023-07-31T15:03:19;100186.19;;;18.29;100.00
22688;BME280;11511;51.514;7.080;2023-07-31T15:05:46;100200.25;;;18.42;100.00
22688;BME280;11511;51.514;7.080;2023-07-31T15:08:15;100195.38;;;18.36;100.00
22688;BME280;11511;51.514;7.080;2023-07-31T15:10:43;100207.94;;;18.23;100.00
22688;BME280;11511;51.514;7.080;2023-07-31T15:13:15;100213.09;;;18.13;100.00
22688;BME280;11511;51.514;7.080;2023-07-31T15:15:43;100229.38;;;17.98;100.00
22688;BME280;11511;51.514;7.080;2023-07-31T15:18:12;100217.78;;;17.99;100.00
22688;BME280;11511;51.514;7.080;2023-07-31T15:20:41;100223.44;;;17.94;100.00
22688;BME280;11511;51.514;7.080;2023-07-31T15:23:28;100216.22;;;17.83;100.00
22688;BME280;11511;51.514;7.080;2023-07-31T15:26:13;100208.81;;;17.76;100.00
22688;BME280;11511;51.514;7.080;2023-07-31T15:28:49;100204.44;;;17.75;100.00
22688;BME280;11511;51.514;7.080;2023-07-31T15:31:22;100194.75;;;17.74;100.00
22688;BME280;11511;51.514;7.080;2023-07-31T15:34:15;100192.34;;;17.82;100.00
22688;BME280;11511;51.514;7.080;2023-07-31T15:36:55;100173.53;;;17.96;100.00
22688;BME280;11511;51.514;7.080;2023-07-31T15:39:32;100170.13;;;17.94;100.00
22688;BME280;11511;51.514;7.080;2023-07-31T15:42:03;100161.06;;;17.97;100.00
22688;BME280;11511;51.514;7.080;2023-07-31T15:44:31;100151.03;;;18.00;100.00
22688;BME280;11511;51.514;7.080;2023-07-31T15:46:58;100129.22;;;18.06;100.00
22688;BME280;11511;51.514;7.080;2023-07-31T15:49:31;100122.59;;;18.12;100.00
22688;BME280;11511;51.514;7.080;2023-07-31T15:51:59;100122.47;;;18.13;100.00
22688;BME280;11511;51.514;7.080;2023-07-31T15:54:29;100109.66;;;18.18;100.00
22688;BME280;11511;51.514;7.080;2023-07-31T15:57:06;100106.03;;;18.19;100.00
22688;BME280;11511;51.514;7.080;2023-07-31T15:59:46;100115.50;;;18.23;100.00
22688;BME280;11511;51.514;7.080;2023-07-31T16:02:15;100098.66;;;18.23;100.00
22688;BME280;11511;51.514;7.080;2023-07-31T16:04:43;100090.31;;;18.27;100.00
22688;BME280;11511;51.514;7.080;2023-07-31T16:07:13;100088.13;;;18.33;100.00
22688;BME280;11511;51.514;7.080;2023-07-31T16:09:40;100095.03;;;18.35;100.00
22688;BME280;11511;51.514;7.080;2023-07-31T16:12:15;100080.56;;;18.15;100.00
22688;BME280;11511;51.514;7.080;2023-07-31T16:14:43;100097.75;;;18.00;100.00
22688;BME280;11511;51.514;7.080;2023-07-31T16:17:10;100096.09;;;17.86;100.00
22688;BME280;11511;51.514;7.080;2023-07-31T16:19:37;100117.81;;;17.69;100.00
22688;BME280;11511;51.514;7.080;2023-07-31T16:22:05;100134.13;;;17.52;100.00
22688;BME280;11511;51.514;7.080;2023-07-31T16:24:34;100135.59;;;17.32;100.00
22688;BME280;11511;51.514;7.080;2023-07-31T16:27:00;100150.75;;;17.19;100.00
22688;BME280;11511;51.514;7.080;2023-07-31T16:29:41;100140.00;;;17.08;100.00
22688;BME280;11511;51.514;7.080;2023-07-31T16:32:09;100148.31;;;17.03;100.00
22688;BME280;11511;51.514;7.080;2023-07-31T16:34:37;100157.81;;;16.95;100.00
22688;BME280;11511;51.514;7.080;2023-07-31T16:37:07;100149.72;;;16.83;100.00
22688;BME280;11511;51.514;7.080;2023-07-31T16:39:34;100147.16;;;16.82;100.00
22688;BME280;11511;51.514;7.080;2023-07-31T16:42:05;100137.47;;;16.81;100.00
22688;BME280;11511;51.514;7.080;2023-07-31T16:44:32;100133.44;;;16.75;100.00
22688;BME280;11511;51.514;7.080;2023-07-31T16:47:00;100143.31;;;16.73;100.00
22688;BME280;11511;51.514;7.080;2023-07-31T16:49:37;100131.19;;;16.69;100.00
22688;BME280;11511;51.514;7.080;2023-07-31T16:52:04;100131.84;;;16.73;100.00
22688;BME280;11511;51.514;7.080;2023-07-31T16:54:35;100129.16;;;16.73;100.00
22688;BME280;11511;51.514;7.080;2023-07-31T16:57:07;100124.31;;;16.67;100.00
22688;BME280;11511;51.514;7.080;2023-07-31T16:59:38;100123.00;;;16.72;100.00
22688;BME280;11511;51.514;7.080;2023-07-31T17:02:07;100124.06;;;16.70;100.00
22688;BME280;11511;51.514;7.080;2023-07-31T17:04:45;100110.66;;;16.71;100.00
22688;BME280;11511;51.514;7.080;2023-07-31T17:07:13;100109.06;;;16.69;100.00
22688;BME280;11511;51.514;7.080;2023-07-31T17:09:41;100108.97;;;16.70;100.00
22688;BME280;11511;51.514;7.080;2023-07-31T17:12:27;100097.38;;;16.71;100.00
22688;BME280;11511;51.514;7.080;2023-07-31T17:15:01;100098.56;;;16.67;100.00
22688;BME280;11511;51.514;7.080;2023-07-31T17:17:34;100093.25;;;16.67;100.00
22688;BME280;11511;51.514;7.080;2023-07-31T17:20:21;100090.88;;;16.63;100.00
22688;BME280;11511;51.514;7.080;2023-07-31T17:22:52;100084.91;;;16.59;100.00
22688;BME280;11511;51.514;7.080;2023-07-31T17:25:31;100071.09;;;16.54;100.00
22688;BME280;11511;51.514;7.080;2023-07-31T17:28:00;100078.31;;;16.52;100.00
22688;BME280;11511;51.514;7.080;2023-07-31T17:30:30;100078.53;;;16.49;100.00
22688;BME280;11511;51.514;7.080;2023-07-31T17:33:05;100060.97;;;16.46;100.00
22688;BME280;11511;51.514;7.080;2023-07-31T17:35:33;100060.97;;;16.46;100.00
22688;BME280;11511;51.514;7.080;2023-07-31T17:38:03;100059.47;;;16.42;100.00
22688;BME280;11511;51.514;7.080;2023-07-31T17:40:37;100061.28;;;16.42;100.00
22688;BME280;11511;51.514;7.080;2023-07-31T17:43:09;100050.03;;;16.38;100.00
22688;BME280;11511;51.514;7.080;2023-07-31T17:45:54;100044.72;;;16.38;100.00
22688;BME280;11511;51.514;7.080;2023-07-31T17:48:24;100048.44;;;16.36;100.00
22688;BME280;11511;51.514;7.080;2023-07-31T17:50:52;100048.75;;;16.31;100.00
22688;BME280;11511;51.514;7.080;2023-07-31T17:53:23;100045.47;;;16.28;100.00
22688;BME280;11511;51.514;7.080;2023-07-31T17:56:10;100040.25;;;16.26;100.00
22688;BME280;11511;51.514;7.080;2023-07-31T17:58:38;100043.97;;;16.23;100.00
22688;BME280;11511;51.514;7.080;2023-07-31T18:01:12;100034.50;;;16.19;100.00
22688;BME280;11511;51.514;7.080;2023-07-31T18:03:46;100034.72;;;16.16;100.00
22688;BME280;11511;51.514;7.080;2023-07-31T18:06:17;100041.81;;;16.16;100.00
22688;BME280;11511;51.514;7.080;2023-07-31T18:08:48;100034.94;;;16.13;100.00
22688;BME280;11511;51.514;7.080;2023-07-31T18:11:22;100034.41;;;16.08;100.00
22688;BME280;11511;51.514;7.080;2023-07-31T18:13:57;100039.94;;;16.05;100.00
22688;BME280;11511;51.514;7.080;2023-07-31T18:16:27;100034.91;;;16.01;100.00
22688;BME280;11511;51.514;7.080;2023-07-31T18:19:04;100033.31;;;15.98;100.00
22688;BME280;11511;51.514;7.080;2023-07-31T18:21:38;100029.91;;;15.96;100.00
22688;BME280;11511;51.514;7.080;2023-07-31T18:24:06;100026.63;;;15.93;100.00
22688;BME280;11511;51.514;7.080;2023-07-31T18:26:40;100026.72;;;15.91;100.00
22688;BME280;11511;51.514;7.080;2023-07-31T18:29:14;100018.84;;;15.89;100.00
22688;BME280;11511;51.514;7.080;2023-07-31T18:31:41;100015.34;;;15.89;100.00
22688;BME280;11511;51.514;7.080;2023-07-31T18:34:10;100002.31;;;15.86;100.00
22688;BME280;11511;51.514;7.080;2023-07-31T18:36:39;100007.59;;;15.86;100.00
22688;BME280;11511;51.514;7.080;2023-07-31T18:39:20;100006.75;;;15.85;100.00
22688;BME280;11511;51.514;7.080;2023-07-31T18:41:46;100010.28;;;15.86;100.00
22688;BME280;11511;51.514;7.080;2023-07-31T18:44:16;100002.41;;;15.84;100.00
22688;BME280;11511;51.514;7.080;2023-07-31T18:46:46;99997.94;;;15.85;100.00
22688;BME280;11511;51.514;7.080;2023-07-31T18:49:15;99994.44;;;15.84;100.00
22688;BME280;11511;51.514;7.080;2023-07-31T18:51:47;99996.13;;;15.85;100.00
22688;BME280;11511;51.514;7.080;2023-07-31T18:54:17;99983.81;;;15.84;100.00
22688;BME280;11511;51.514;7.080;2023-07-31T18:56:44;99981.16;;;15.84;100.00
22688;BME280;11511;51.514;7.080;2023-07-31T18:59:11;99975.84;;;15.84;100.00
22688;BME280;11511;51.514;7.080;2023-07-31T19:01:40;99965.22;;;15.84;100.00
22688;BME280;11511;51.514;7.080;2023-07-31T19:04:12;99971.38;;;15.85;100.00
22688;BME280;11511;51.514;7.080;2023-07-31T19:06:41;99957.25;;;15.84;100.00
22688;BME280;11511;51.514;7.080;2023-07-31T19:09:32;99955.44;;;15.85;100.00
22688;BME280;11511;51.514;7.080;2023-07-31T19:12:06;99946.75;;;15.83;100.00
22688;BME280;11511;51.514;7.080;2023-07-31T19:14:38;99939.63;;;15.83;100.00
22688;BME280;11511;51.514;7.080;2023-07-31T19:17:17;99936.97;;;15.83;100.00
22688;BME280;11511;51.514;7.080;2023-07-31T19:19:51;99933.47;;;15.83;100.00
22688;BME280;11511;51.514;7.080;2023-07-31T19:22:21;99927.09;;;15.85;100.00
22688;BME280;11511;51.514;7.080;2023-07-31T19:24:49;99930.69;;;15.84;100.00
22688;BME280;11511;51.514;7.080;2023-07-31T19:27:27;99915.72;;;15.83;100.00
22688;BME280;11511;51.514;7.080;2023-07-31T19:29:55;99919.13;;;15.85;100.00
22688;BME280;11511;51.514;7.080;2023-07-31T19:32:24;99903.06;;;15.87;100.00
22688;BME280;11511;51.514;7.080;2023-07-31T19:34:51;99905.84;;;15.85;100.00
22688;BME280;11511;51.514;7.080;2023-07-31T19:37:21;99890.03;;;15.84;100.00
22688;BME280;11511;51.514;7.080;2023-07-31T19:39:51;99904.16;;;15.84;100.00
22688;BME280;11511;51.514;7.080;2023-07-31T19:42:19;99909.34;;;15.86;100.00
22688;BME280;11511;51.514;7.080;2023-07-31T19:44:49;99908.38;;;15.87;100.00
22688;BME280;11511;51.514;7.080;2023-07-31T19:47:21;99902.19;;;15.86;100.00
22688;BME280;11511;51.514;7.080;2023-07-31T19:49:52;99909.34;;;15.86;100.00
22688;BME280;11511;51.514;7.080;2023-07-31T19:52:21;99920.69;;;15.88;100.00
22688;BME280;11511;51.514;7.080;2023-07-31T19:54:49;99923.44;;;15.86;100.00
22688;BME280;11511;51.514;7.080;2023-07-31T19:57:18;99916.22;;;15.88;100.00
22688;BME280;11511;51.514;7.080;2023-07-31T19:59:48;99917.94;;;15.89;100.00
22688;BME280;11511;51.514;7.080;2023-07-31T20:02:15;99915.28;;;15.89;100.00
22688;BME280;11511;51.514;7.080;2023-07-31T20:04:49;99912.63;;;15.89;100.00
22688;BME280;11511;51.514;7.080;2023-07-31T20:07:42;99902.75;;;15.91;100.00
22688;BME280;11511;51.514;7.080;2023-07-31T20:10:27;99902.75;;;15.91;100.00
22688;BME280;11511;51.514;7.080;2023-07-31T20:12:53;99907.09;;;15.93;100.00
22688;BME280;11511;51.514;7.080;2023-07-31T20:15:40;99907.00;;;15.94;100.00
22688;BME280;11511;51.514;7.080;2023-07-31T20:18:11;99902.53;;;15.95;100.00
22688;BME280;11511;51.514;7.080;2023-07-31T20:20:41;99901.69;;;15.94;100.00
22688;BME280;11511;51.514;7.080;2023-07-31T20:23:17;99902.53;;;15.95;100.00
22688;BME280;11511;51.514;7.080;2023-07-31T20:25:46;99893.41;;;15.99;100.00
22688;BME280;11511;51.514;7.080;2023-07-31T20:28:22;99892.53;;;15.98;100.00
22688;BME280;11511;51.514;7.080;2023-07-31T20:30:55;99897.84;;;15.98;100.00
22688;BME280;11511;51.514;7.080;2023-07-31T20:33:42;99883.63;;;15.99;100.00
22688;BME280;11511;51.514;7.080;2023-07-31T20:36:14;99890.53;;;16.02;100.00
22688;BME280;11511;51.514;7.080;2023-07-31T20:38:41;99886.06;;;16.02;100.00
22688;BME280;11511;51.514;7.080;2023-07-31T20:41:15;99887.88;;;16.02;100.00
22688;BME280;11511;51.514;7.080;2023-07-31T20:43:43;99894.88;;;16.03;100.00
22688;BME280;11511;51.514;7.080;2023-07-31T20:46:15;99886.81;;;16.04;100.00
22688;BME280;11511;51.514;7.080;2023-07-31T20:48:45;99882.44;;;16.03;100.00
22688;BME280;11511;51.514;7.080;2023-07-31T20:51:12;99878.72;;;16.06;100.00
22688;BME280;11511;51.514;7.080;2023-07-31T20:53:46;99896.47;;;16.05;100.00
22688;BME280;11511;51.514;7.080;2023-07-31T20:56:22;99869.81;;;16.07;100.00
22688;BME280;11511;51.514;7.080;2023-07-31T20:58:51;99856.53;;;16.07;100.00
22688;BME280;11511;51.514;7.080;2023-07-31T21:01:18;99853.13;;;16.05;100.00
22688;BME280;11511;51.514;7.080;2023-07-31T21:03:58;99842.38;;;16.06;100.00
22688;BME280;11511;51.514;7.080;2023-07-31T21:06:26;99855.78;;;16.05;100.00
22688;BME280;11511;51.514;7.080;2023-07-31T21:08:57;99839.94;;;16.03;100.00
22688;BME280;11511;51.514;7.080;2023-07-31T21:11:36;99831.97;;;16.03;100.00
22688;BME280;11511;51.514;7.080;2023-07-31T21:14:09;99828.47;;;16.03;100.00
22688;BME280;11511;51.514;7.080;2023-07-31T21:16:38;99820.63;;;16.01;100.00
22688;BME280;11511;51.514;7.080;2023-07-31T21:19:06;99818.81;;;16.02;100.00
22688;BME280;11511;51.514;7.080;2023-07-31T21:21:35;99810.94;;;16.00;100.00
22688;BME280;11511;51.514;7.080;2023-07-31T21:24:11;99804.78;;;16.00;100.00
22688;BME280;11511;51.514;7.080;2023-07-31T21:26:46;99793.31;;;15.99;100.00
22688;BME280;11511;51.514;7.080;2023-07-31T21:29:17;99795.00;;;16.00;100.00
22688;BME280;11511;51.514;7.080;2023-07-31T21:34:54;99781.94;;;15.97;100.00
22688;BME280;11511;51.514;7.080;2023-07-31T21:37:37;99784.38;;;16.00;100.00
22688;BME280;11511;51.514;7.080;2023-07-31T21:40:16;99769.41;;;15.99;100.00
22688;BME280;11511;51.514;7.080;2023-07-31T21:43:12;99767.72;;;15.98;100.00
22688;BME280;11511;51.514;7.080;2023-07-31T21:49:24;99758.78;;;15.99;100.00
22688;BME280;11511;51.514;7.080;2023-07-31T21:52:14;99753.47;;;15.99;100.00
22688;BME280;11511;51.514;7.080;2023-07-31T21:59:06;99739.44;;;15.97;100.00
22688;BME280;11511;51.514;7.080;2023-07-31T22:02:17;99727.25;;;15.95;100.00
22688;BME280;11511;51.514;7.080;2023-07-31T22:05:08;99725.44;;;15.95;100.00
22688;BME280;11511;51.514;7.080;2023-07-31T22:07:39;99725.53;;;15.94;100.00
22688;BME280;11511;51.514;7.080;2023-07-31T22:10:18;99721.06;;;15.94;100.00
22688;BME280;11511;51.514;7.080;2023-07-31T22:13:06;99710.44;;;15.94;100.00
22688;BME280;11511;51.514;7.080;2023-07-31T22:19:14;99696.31;;;15.94;100.00
22688;BME280;11511;51.514;7.080;2023-07-31T22:22:03;99696.31;;;15.94;100.00
22688;BME280;11511;51.514;7.080;2023-07-31T22:24:51;99687.50;;;15.93;100.00
22688;BME280;11511;51.514;7.080;2023-07-31T22:27:20;99689.22;;;15.94;100.00
22688;BME280;11511;51.514;7.080;2023-07-31T22:29:51;99695.38;;;15.95;100.00
22688;BME280;11511;51.514;7.080;2023-07-31T22:32:21;99695.38;;;15.95;100.00
22688;BME280;11511;51.514;7.080;2023-07-31T22:35:22;99694.50;;;15.94;100.00
22688;BME280;11511;51.514;7.080;2023-07-31T22:38:39;99699.09;;;15.92;100.00
22688;BME280;11511;51.514;7.080;2023-07-31T22:44:17;99670.94;;;15.89;100.00
22688;BME280;11511;51.514;7.080;2023-07-31T22:46:58;99682.03;;;15.83;100.00
22688;BME280;11511;51.514;7.080;2023-07-31T22:49:31;99673.22;;;15.83;100.00
22688;BME280;11511;51.514;7.080;2023-07-31T22:51:59;99674.50;;;15.77;100.00
22688;BME280;11511;51.514;7.080;2023-07-31T22:54:38;99667.00;;;15.71;100.00
22688;BME280;11511;51.514;7.080;2023-07-31T22:57:20;99660.72;;;15.72;100.00
22688;BME280;11511;51.514;7.080;2023-07-31T23:00:00;99657.22;;;15.72;100.00
22688;BME280;11511;51.514;7.080;2023-07-31T23:03:14;99653.94;;;15.68;100.00
22688;BME280;11511;51.514;7.080;2023-07-31T23:06:09;99639.81;;;15.68;100.00
22688;BME280;11511;51.514;7.080;2023-07-31T23:08:45;99625.19;;;15.62;100.00
22688;BME280;11511;51.514;7.080;2023-07-31T23:11:21;99621.19;;;15.56;100.00
22688;BME280;11511;51.514;7.080;2023-07-31T23:14:13;99621.94;;;15.59;100.00
22688;BME280;11511;51.514;7.080;2023-07-31T23:17:36;99615.78;;;15.58;100.00
22688;BME280;11511;51.514;7.080;2023-07-31T23:23:56;99601.66;;;15.57;100.00
22688;BME280;11511;51.514;7.080;2023-07-31T23:26:39;99606.97;;;15.57;100.00
22688;BME280;11511;51.514;7.080;2023-07-31T23:29:31;99597.19;;;15.58;100.00
22688;BME280;11511;51.514;7.080;2023-07-31T23:32:59;99584.88;;;15.57;100.00
22688;BME280;11511;51.514;7.080;2023-07-31T23:42:14;99578.50;;;15.47;100.00
22688;BME280;11511;51.514;7.080;2023-07-31T23:45:36;99577.75;;;15.45;100.00
22688;BME280;11511;51.514;7.080;2023-07-31T23:48:33;99570.03;;;15.42;100.00
22688;BME280;11511;51.514;7.080;2023-07-31T23:51:42;99569.63;;;15.35;100.00
22688;BME280;11511;51.514;7.080;2023-07-31T23:54:58;99566.13;;;15.35;100.00
22688;BME280;11511;51.514;7.080;2023-07-31T23:57:34;99564.53;;;15.32;100.00
